createdAt,value
2019-03-26T00:00:27.870Z,84.17
2019-03-26T00:05:54.417Z,85.30
2019-03-26T00:08:20.656Z,85.44
2019-03-26T00:10:46.910Z,84.41
2019-03-26T00:13:13.159Z,85.61
2019-03-26T00:15:39.421Z,86.29
2019-03-26T00:18:05.657Z,86.64
2019-03-26T00:20:31.917Z,86.61
2019-03-26T00:22:58.159Z,85.57
2019-03-26T00:25:24.417Z,85.89
2019-03-26T00:27:50.654Z,86.81
2019-03-26T00:30:17.017Z,86.32
2019-03-26T00:32:43.250Z,85.84
2019-03-26T00:35:09.514Z,85.76
2019-03-26T00:37:35.756Z,86.45
2019-03-26T00:42:56.395Z,86.03
2019-03-26T00:45:22.651Z,86.31
2019-03-26T00:47:48.895Z,86.95
2019-03-26T00:50:15.145Z,86.33
2019-03-26T00:52:41.383Z,86.91
2019-03-26T00:55:48.940Z,87.67
2019-03-26T00:58:15.178Z,86.75
2019-03-26T01:01:22.726Z,86.39
2019-03-26T01:03:48.972Z,85.54
2019-03-26T01:06:15.239Z,85.83
2019-03-26T01:08:41.481Z,86.16
2019-03-26T01:11:07.738Z,85.64
2019-03-26T01:13:33.971Z,86.24
2019-03-26T01:16:00.241Z,87.85
2019-03-26T01:18:26.490Z,86.28
2019-03-26T01:20:52.754Z,86.09
2019-03-26T01:23:18.986Z,86.15
2019-03-26T01:25:45.228Z,87.95
2019-03-26T01:28:11.466Z,88.34
2019-03-26T01:30:37.697Z,87.02
2019-03-26T01:33:03.964Z,86.88
2019-03-26T01:35:30.192Z,86.63
2019-03-26T01:37:56.449Z,87.35
2019-03-26T01:40:22.705Z,88.72
2019-03-26T01:42:48.959Z,87.06
2019-03-26T01:45:15.200Z,87.25
2019-03-26T01:47:41.458Z,87.42
2019-03-26T01:50:07.807Z,87.20
2019-03-26T01:52:34.053Z,87.94
2019-03-26T01:55:00.396Z,87.64
2019-03-26T01:57:26.683Z,87.16
2019-03-26T01:59:52.943Z,87.70
2019-03-26T02:02:19.194Z,87.82
2019-03-26T02:04:58.941Z,88.41
2019-03-26T02:07:13.592Z,88.72
2019-03-26T02:09:39.840Z,88.20
2019-03-26T02:12:06.088Z,87.96
2019-03-26T02:14:32.324Z,88.75
2019-03-26T02:16:58.562Z,88.96
2019-03-26T02:19:24.818Z,88.27
2019-03-26T02:21:51.164Z,88.53
2019-03-26T02:24:17.418Z,88.35
2019-03-26T02:26:43.657Z,89.58
2019-03-26T02:29:09.943Z,89.62
2019-03-26T02:31:36.184Z,89.93
2019-03-26T02:34:02.418Z,90.07
2019-03-26T02:36:28.674Z,89.41
2019-03-26T02:38:54.913Z,89.74
2019-03-26T02:41:21.155Z,89.88
2019-03-26T02:43:47.426Z,92.00
2019-03-26T02:46:13.672Z,90.17
2019-03-26T02:48:39.922Z,88.95
2019-03-26T02:51:06.152Z,89.43
2019-03-26T02:53:32.408Z,90.45
2019-03-26T02:55:58.682Z,90.96
2019-03-26T02:58:24.994Z,91.19
2019-03-26T03:00:51.225Z,90.88
2019-03-26T03:03:17.478Z,90.88
2019-03-26T03:05:43.722Z,90.05
2019-03-26T03:08:09.957Z,88.81
2019-03-26T03:10:36.232Z,89.52
2019-03-26T03:13:02.452Z,90.35
2019-03-26T03:15:28.710Z,90.17
2019-03-26T03:17:54.947Z,89.18
2019-03-26T03:20:21.202Z,89.76
2019-03-26T03:22:47.443Z,90.29
2019-03-26T03:25:13.688Z,90.28
2019-03-26T03:27:39.920Z,90.23
2019-03-26T03:30:47.475Z,89.73
2019-03-26T03:33:13.716Z,89.09
2019-03-26T03:35:52.280Z,88.84
2019-03-26T03:38:08.354Z,88.27
2019-03-26T03:40:34.720Z,88.41
2019-03-26T03:43:01.151Z,87.70
2019-03-26T03:46:08.724Z,88.51
2019-03-26T04:00:51.462Z,89.26
2019-03-26T04:03:17.718Z,89.01
2019-03-26T04:05:43.988Z,89.42
2019-03-26T04:08:10.234Z,90.25
2019-03-26T04:10:56.253Z,90.57
2019-03-26T04:13:22.501Z,90.38
2019-03-26T04:15:48.769Z,90.64
2019-03-26T04:18:15.028Z,90.44
2019-03-26T04:20:41.276Z,90.78
2019-03-26T04:23:07.527Z,91.42
2019-03-26T04:25:33.762Z,91.56
2019-03-26T04:28:00.023Z,90.80
2019-03-26T04:31:07.567Z,90.84
2019-03-26T04:33:33.812Z,91.14
2019-03-26T04:36:00.071Z,92.27
2019-03-26T04:38:26.306Z,91.86
2019-03-26T04:40:52.557Z,91.18
2019-03-26T04:43:19.205Z,91.67
2019-03-26T04:45:46.954Z,91.47
2019-03-26T04:48:13.216Z,91.30
2019-03-26T04:50:39.452Z,91.67
2019-03-26T04:53:05.704Z,92.47
2019-03-26T04:55:31.947Z,92.41
2019-03-26T04:57:58.202Z,92.12
2019-03-26T05:00:24.443Z,91.90
2019-03-26T05:02:50.689Z,91.50
2019-03-26T05:05:16.936Z,91.96
2019-03-26T05:07:43.186Z,91.53
2019-03-26T05:13:22.676Z,92.25
2019-03-26T05:15:48.918Z,91.92
2019-03-26T05:18:15.204Z,91.55
2019-03-26T05:20:41.458Z,91.74
2019-03-26T05:23:07.707Z,91.98
2019-03-26T05:28:21.568Z,91.40
2019-03-26T05:30:47.819Z,91.32
2019-03-26T05:33:14.090Z,90.49
2019-03-26T05:35:40.344Z,89.78
2019-03-26T05:38:06.617Z,89.58
2019-03-26T05:40:32.881Z,90.35
2019-03-26T05:42:59.151Z,90.47
2019-03-26T05:45:25.388Z,90.81
2019-03-26T05:47:51.647Z,90.70
2019-03-26T05:50:17.877Z,90.10
2019-03-26T05:52:44.129Z,89.21
2019-03-26T05:58:17.848Z,86.54
2019-03-26T06:00:44.089Z,86.14
2019-03-26T06:03:10.351Z,84.57
2019-03-26T06:05:36.578Z,83.40
2019-03-26T06:08:02.812Z,82.74
2019-03-26T06:10:29.057Z,82.07
2019-03-26T06:12:55.295Z,82.21
2019-03-26T06:15:21.553Z,81.07
2019-03-26T06:17:47.777Z,81.83
2019-03-26T06:20:14.130Z,79.90
2019-03-26T06:22:40.357Z,78.47
2019-03-26T06:25:06.715Z,76.08
2019-03-26T06:27:33.034Z,73.21
2019-03-26T06:29:59.286Z,73.01
2019-03-26T06:32:25.512Z,75.01
2019-03-26T06:34:51.761Z,72.95
2019-03-26T06:37:18.479Z,73.42
2019-03-26T06:39:46.164Z,72.98
2019-03-26T06:42:12.405Z,72.17
2019-03-26T06:44:38.671Z,68.94
2019-03-26T06:47:04.911Z,67.85
2019-03-26T06:49:31.164Z,68.74
2019-03-26T06:51:57.406Z,67.58
2019-03-26T06:54:23.653Z,65.27
2019-03-26T06:56:49.908Z,64.29
2019-03-26T06:59:16.146Z,65.26
2019-03-26T07:01:42.397Z,62.93
2019-03-26T07:04:08.629Z,64.66
2019-03-26T07:06:34.884Z,62.45
2019-03-26T07:09:01.123Z,64.81
2019-03-26T07:11:27.371Z,64.37
2019-03-26T07:13:53.640Z,59.15
2019-03-26T07:16:19.914Z,61.83
2019-03-26T07:18:46.168Z,62.31
2019-03-26T07:21:12.409Z,59.41
2019-03-26T07:23:38.660Z,61.43
2019-03-26T07:28:58.935Z,60.21
2019-03-26T07:31:25.184Z,57.76
2019-03-26T07:33:51.411Z,54.15
2019-03-26T07:36:17.663Z,54.98
2019-03-26T07:38:43.899Z,53.28
2019-03-26T07:41:10.166Z,57.34
2019-03-26T07:43:36.398Z,58.34
2019-03-26T07:46:02.659Z,54.10
2019-03-26T07:48:28.889Z,51.82
2019-03-26T07:50:55.115Z,55.89
2019-03-26T07:53:21.377Z,51.36
2019-03-26T07:55:47.629Z,47.60
2019-03-26T07:58:13.878Z,53.01
2019-03-26T08:00:40.103Z,49.83
2019-03-26T08:03:06.357Z,47.42
2019-03-26T08:05:32.581Z,50.87
2019-03-26T08:07:58.969Z,53.04
2019-03-26T08:10:25.211Z,49.01
2019-03-26T08:12:51.452Z,49.24
2019-03-26T08:15:20.162Z,51.36
2019-03-26T08:17:45.849Z,53.45
2019-03-26T08:20:12.762Z,51.82
2019-03-26T08:22:40.246Z,50.25
2019-03-26T08:28:19.924Z,51.09
2019-03-26T08:30:46.156Z,48.26
2019-03-26T08:33:12.395Z,49.78
2019-03-26T08:35:38.653Z,46.09
2019-03-26T08:38:12.272Z,48.97
2019-03-26T08:40:33.044Z,50.16
2019-03-26T08:42:59.295Z,51.47
2019-03-26T08:45:25.527Z,49.15
2019-03-26T08:47:51.778Z,47.88
2019-03-26T08:50:18.026Z,47.41
2019-03-26T08:52:44.295Z,47.59
2019-03-26T08:55:32.076Z,49.13
2019-03-26T08:57:58.359Z,49.18
2019-03-26T09:00:24.604Z,51.60
2019-03-26T09:02:50.865Z,51.96
2019-03-26T09:05:17.121Z,51.80
2019-03-26T09:07:43.360Z,48.66
2019-03-26T09:10:51.956Z,48.51
2019-03-26T09:13:19.071Z,49.87
2019-03-26T09:15:45.309Z,50.15
2019-03-26T09:18:11.536Z,50.35
2019-03-26T09:20:37.785Z,51.16
2019-03-26T09:23:04.034Z,50.87
2019-03-26T09:25:30.275Z,50.71
2019-03-26T09:27:56.537Z,52.17
2019-03-26T09:30:22.770Z,52.35
2019-03-26T09:32:49.011Z,50.69
2019-03-26T09:38:09.428Z,50.36
2019-03-26T09:40:35.678Z,47.95
2019-03-26T09:43:01.914Z,49.44
2019-03-26T09:45:28.151Z,50.40
2019-03-26T09:47:54.379Z,51.16
2019-03-26T09:50:40.368Z,51.55
2019-03-26T09:53:06.618Z,52.86
2019-03-26T09:55:32.883Z,51.57
2019-03-26T09:57:59.141Z,50.86
2019-03-26T10:00:25.447Z,50.32
2019-03-26T10:02:51.749Z,44.37
2019-03-26T10:05:18.004Z,48.34
2019-03-26T10:07:44.241Z,49.10
2019-03-26T10:10:51.788Z,47.60
2019-03-26T10:13:18.031Z,46.79
2019-03-26T10:16:04.049Z,47.06
2019-03-26T10:18:30.292Z,45.33
2019-03-26T10:20:56.540Z,45.35
2019-03-26T10:23:22.780Z,47.46
2019-03-26T10:25:49.027Z,44.13
2019-03-26T10:28:15.254Z,46.72
2019-03-26T10:30:41.500Z,46.62
2019-03-26T10:33:07.829Z,45.42
2019-03-26T10:35:34.057Z,45.86
2019-03-26T10:38:00.299Z,45.75
2019-03-26T10:40:46.291Z,45.18
2019-03-26T10:43:12.538Z,44.87
2019-03-26T10:45:38.779Z,45.44
2019-03-26T10:48:05.017Z,46.38
2019-03-26T10:50:31.252Z,47.13
2019-03-26T10:52:57.505Z,47.29
2019-03-26T10:55:23.733Z,44.66
2019-03-26T10:57:49.998Z,46.72
2019-03-26T11:03:29.498Z,45.01
2019-03-26T11:05:55.738Z,38.85
2019-03-26T11:08:21.976Z,39.44
2019-03-26T11:11:29.511Z,39.62
2019-03-26T11:13:58.668Z,40.39
2019-03-26T11:16:23.890Z,41.90
2019-03-26T11:18:50.134Z,43.57
2019-03-26T11:21:16.363Z,42.29
2019-03-26T11:23:42.608Z,42.81
2019-03-26T11:26:08.837Z,42.08
2019-03-26T11:28:35.113Z,41.18
2019-03-26T11:31:01.355Z,41.18
2019-03-26T11:33:27.593Z,41.79
2019-03-26T11:35:53.817Z,41.07
2019-03-26T11:38:20.062Z,44.42
2019-03-26T11:40:46.299Z,41.06
2019-03-26T11:43:12.550Z,41.52
2019-03-26T11:45:38.781Z,40.19
2019-03-26T11:48:05.063Z,41.70
2019-03-26T11:50:31.312Z,40.06
2019-03-26T11:52:57.560Z,41.46
2019-03-26T11:55:23.796Z,39.99
2019-03-26T11:57:50.043Z,43.87
2019-03-26T12:00:57.599Z,41.93
2019-03-26T12:03:23.862Z,41.70
2019-03-26T12:05:50.090Z,42.38
2019-03-26T12:08:16.331Z,40.67
2019-03-26T12:10:42.569Z,40.77
2019-03-26T12:13:08.829Z,42.07
2019-03-26T12:15:35.073Z,41.28
2019-03-26T12:18:01.301Z,43.36
2019-03-26T12:20:27.553Z,44.01
2019-03-26T12:22:53.793Z,42.17
2019-03-26T12:25:20.045Z,40.22
2019-03-26T12:27:46.275Z,40.50
2019-03-26T12:30:53.818Z,41.63
2019-03-26T12:33:20.050Z,41.60
2019-03-26T12:35:46.305Z,40.61
2019-03-26T12:38:32.279Z,43.05
2019-03-26T12:40:58.569Z,43.23
2019-03-26T12:43:24.787Z,39.87
2019-03-26T12:45:51.033Z,39.62
2019-03-26T12:48:17.280Z,38.43
2019-03-26T12:50:43.522Z,40.66
2019-03-26T12:53:12.644Z,41.93
2019-03-26T12:55:37.911Z,37.23
2019-03-26T12:58:04.149Z,37.35
2019-03-26T13:01:11.731Z,39.37
2019-03-26T13:03:37.964Z,36.58
2019-03-26T13:06:04.326Z,36.76
2019-03-26T13:08:30.567Z,38.18
2019-03-26T13:10:56.814Z,38.18
2019-03-26T13:13:23.052Z,43.08
2019-03-26T13:15:49.313Z,39.38
2019-03-26T13:18:15.542Z,42.53
2019-03-26T13:20:41.785Z,40.36
2019-03-26T13:23:08.010Z,38.72
2019-03-26T13:25:34.301Z,42.86
2019-03-26T13:28:00.531Z,44.47
2019-03-26T13:30:26.783Z,40.97
2019-03-26T13:32:53.013Z,40.14
2019-03-26T13:35:19.241Z,42.37
2019-03-26T13:37:45.494Z,42.23
2019-03-26T13:40:53.041Z,41.66
2019-03-26T13:43:19.276Z,39.36
2019-03-26T13:45:45.534Z,42.55
2019-03-26T13:48:11.784Z,42.75
2019-03-26T13:50:38.009Z,43.49
2019-03-26T13:53:04.257Z,45.13
2019-03-26T13:55:30.487Z,45.61
2019-03-26T13:57:56.725Z,48.09
2019-03-26T14:00:43.530Z,48.01
2019-03-26T14:03:09.775Z,47.93
2019-03-26T14:05:36.002Z,46.81
2019-03-26T14:08:02.250Z,48.31
2019-03-26T14:10:40.143Z,49.56
2019-03-26T14:12:56.628Z,49.28
2019-03-26T14:15:22.867Z,42.22
2019-03-26T14:17:49.107Z,45.86
2019-03-26T14:20:15.340Z,42.03
2019-03-26T14:22:41.583Z,41.83
2019-03-26T14:25:08.222Z,43.66
2019-03-26T14:27:34.465Z,46.69
2019-03-26T14:30:00.686Z,48.27
2019-03-26T14:32:26.935Z,48.31
2019-03-26T14:35:14.722Z,48.16
2019-03-26T14:38:00.736Z,48.51
2019-03-26T14:40:26.963Z,50.17
2019-03-26T14:42:53.220Z,46.18
2019-03-26T14:45:19.446Z,45.70
2019-03-26T14:47:45.692Z,43.75
2019-03-26T14:50:12.079Z,45.04
2019-03-26T14:53:19.635Z,40.19
2019-03-26T14:58:59.822Z,45.54
2019-03-26T15:01:26.066Z,44.78
2019-03-26T15:04:12.156Z,42.52
2019-03-26T15:06:39.305Z,45.38
2019-03-26T15:09:47.174Z,40.92
2019-03-26T15:12:33.167Z,46.49
2019-03-26T15:14:59.428Z,47.52
2019-03-26T15:17:25.653Z,47.86
2019-03-26T15:22:26.071Z,51.92
2019-03-26T15:24:52.319Z,54.70
2019-03-26T15:27:20.651Z,55.13
2019-03-26T15:29:46.939Z,56.04
2019-03-26T15:32:13.200Z,57.80
2019-03-26T15:34:41.704Z,56.45
2019-03-26T15:37:07.957Z,58.57
2019-03-26T15:39:34.206Z,57.83
2019-03-26T15:42:00.466Z,59.38
2019-03-26T15:44:26.690Z,58.61
2019-03-26T15:46:52.932Z,57.34
2019-03-26T15:49:19.210Z,58.19
2019-03-26T15:51:45.450Z,58.24
2019-03-26T15:54:11.713Z,58.41
2019-03-26T15:56:37.981Z,59.41
2019-03-26T15:59:04.231Z,58.66
2019-03-26T16:01:30.474Z,60.37
2019-03-26T16:03:56.711Z,60.10
2019-03-26T16:06:22.969Z,60.52
2019-03-26T16:08:49.198Z,61.51
2019-03-26T16:11:15.457Z,60.97
2019-03-26T16:13:41.709Z,61.61
2019-03-26T16:16:07.959Z,61.66
2019-03-26T16:18:34.213Z,61.70
2019-03-26T16:21:00.479Z,62.70
2019-03-26T16:23:26.719Z,62.84
2019-03-26T16:25:52.973Z,63.23
2019-03-26T16:28:19.209Z,64.85
2019-03-26T16:30:45.487Z,65.07
2019-03-26T16:33:11.722Z,64.85
2019-03-26T16:35:40.249Z,65.58
2019-03-26T16:38:06.119Z,66.81
2019-03-26T16:40:40.038Z,67.31
2019-03-26T16:43:06.309Z,69.11
2019-03-26T16:45:32.534Z,68.34
2019-03-26T16:47:58.771Z,69.09
2019-03-26T16:50:25.014Z,69.44
2019-03-26T16:52:51.266Z,69.18
2019-03-26T16:55:17.504Z,69.08
2019-03-26T16:57:43.748Z,69.67
2019-03-26T17:08:44.293Z,71.11
2019-03-26T17:11:10.564Z,71.74
2019-03-26T17:13:36.812Z,71.75
2019-03-26T17:16:05.685Z,71.43
2019-03-26T17:18:31.249Z,71.15
2019-03-26T17:20:57.491Z,71.44
2019-03-26T17:23:23.737Z,71.48
2019-03-26T17:25:49.997Z,71.58
2019-03-26T17:28:16.289Z,72.03
2019-03-26T17:33:49.854Z,72.18
2019-03-26T17:36:16.131Z,73.00
2019-03-26T17:38:42.385Z,75.40
2019-03-26T17:41:08.607Z,74.10
2019-03-26T17:43:34.902Z,74.34
2019-03-26T17:46:01.140Z,74.58
2019-03-26T17:48:27.521Z,74.61
2019-03-26T17:50:53.743Z,74.49
2019-03-26T17:53:19.980Z,75.17
2019-03-26T17:55:46.216Z,76.05
2019-03-26T17:58:12.451Z,75.98
2019-03-26T18:01:22.404Z,79.36
2019-03-26T18:03:48.780Z,78.74
2019-03-26T18:06:15.930Z,81.67
2019-03-26T18:08:42.189Z,79.76
2019-03-26T18:11:08.423Z,79.70
2019-03-26T18:13:35.094Z,80.13
2019-03-26T18:16:01.318Z,79.44
2019-03-26T18:18:27.875Z,79.53
2019-03-26T18:20:54.122Z,79.37
2019-03-26T18:24:01.721Z,79.23
2019-03-26T18:26:27.963Z,79.84
2019-03-26T18:28:58.138Z,81.31
2019-03-26T18:31:24.387Z,80.67
2019-03-26T18:33:50.638Z,81.86
2019-03-26T18:36:36.645Z,80.59
2019-03-26T18:42:00.162Z,80.47
2019-03-26T18:44:26.389Z,81.15
2019-03-26T18:46:52.642Z,82.43
2019-03-26T18:49:18.914Z,82.04
2019-03-26T18:51:45.269Z,82.49
2019-03-26T18:54:11.505Z,81.76
2019-03-26T18:56:37.740Z,82.12
2019-03-26T18:59:04.459Z,82.90
2019-03-26T19:01:30.687Z,83.42
2019-03-26T19:03:56.945Z,83.61
2019-03-26T19:06:23.315Z,84.82
2019-03-26T19:08:49.570Z,85.00
2019-03-26T19:11:15.830Z,85.03
2019-03-26T19:13:42.064Z,84.69
2019-03-26T19:16:28.073Z,84.89
2019-03-26T19:18:54.324Z,85.29
2019-03-26T19:21:40.347Z,85.48
2019-03-26T19:24:06.625Z,86.21
2019-03-26T19:26:32.887Z,86.68
2019-03-26T19:28:59.181Z,86.68
2019-03-26T19:32:06.782Z,86.51
2019-03-26T19:34:33.013Z,86.38
2019-03-26T19:36:59.299Z,87.32
2019-03-26T19:39:25.543Z,87.49
2019-03-26T19:41:51.847Z,87.32
2019-03-26T19:44:18.072Z,87.87
2019-03-26T19:46:44.312Z,87.64
2019-03-26T19:49:10.549Z,88.34
2019-03-26T19:54:10.961Z,90.09
2019-03-26T19:56:37.224Z,91.08
2019-03-26T19:59:03.879Z,90.41
2019-03-26T20:01:30.196Z,92.03
2019-03-26T20:04:16.177Z,93.35
2019-03-26T20:06:42.429Z,93.40
2019-03-26T20:09:13.034Z,93.58
2019-03-26T20:12:00.961Z,93.58
2019-03-26T20:14:27.211Z,94.53
2019-03-26T20:17:18.006Z,95.45
2019-03-26T20:19:52.527Z,96.06
2019-03-26T20:22:18.805Z,96.81
2019-03-26T20:24:45.051Z,96.78
2019-03-26T20:27:11.485Z,97.12
2019-03-26T20:29:37.728Z,96.67
2019-03-26T20:32:03.987Z,96.61
2019-03-26T20:34:30.234Z,96.39
2019-03-26T20:36:56.486Z,96.02
2019-03-26T20:39:22.791Z,95.64
2019-03-26T20:41:49.030Z,95.93
2019-03-26T20:44:15.641Z,95.73
2019-03-26T20:46:41.970Z,95.08
2019-03-26T20:49:08.222Z,95.48
2019-03-26T20:51:34.451Z,95.77
2019-03-26T20:54:00.715Z,95.73
2019-03-26T20:59:40.692Z,95.17
2019-03-26T21:02:26.684Z,95.12
2019-03-26T21:04:52.929Z,94.59
2019-03-26T21:07:19.267Z,94.17
2019-03-26T21:09:45.543Z,94.24
2019-03-26T21:12:11.803Z,94.22
2019-03-26T21:14:38.056Z,93.39
2019-03-26T21:22:57.071Z,93.16
2019-03-26T21:25:23.334Z,93.21
2019-03-26T21:27:49.569Z,92.43
2019-03-26T21:30:57.121Z,91.75
2019-03-26T21:33:23.383Z,91.24
2019-03-26T21:35:49.653Z,91.84
2019-03-26T21:38:15.875Z,91.51
2019-03-26T21:43:36.169Z,91.26
2019-03-26T21:48:56.374Z,91.61
2019-03-26T21:51:22.613Z,93.85
2019-03-26T21:53:48.855Z,93.58
2019-03-26T21:56:15.106Z,94.11
2019-03-26T21:58:41.342Z,93.86
2019-03-26T22:01:07.589Z,94.74
2019-03-26T22:03:34.177Z,94.62
2019-03-26T22:06:00.410Z,93.42
2019-03-26T22:08:26.656Z,93.59
2019-03-26T22:10:52.915Z,92.80
2019-03-26T22:13:19.159Z,94.00
2019-03-26T22:15:45.409Z,93.84
2019-03-26T22:18:11.651Z,95.42
2019-03-26T22:20:37.897Z,95.17
2019-03-26T22:23:04.326Z,94.66
2019-03-26T22:25:30.691Z,94.43
2019-03-26T22:27:56.914Z,94.65
2019-03-26T22:30:23.162Z,94.60
2019-03-26T22:32:49.402Z,94.22
2019-03-26T22:35:15.661Z,94.34
2019-03-26T22:37:41.887Z,94.83
2019-03-26T22:40:29.680Z,94.46
2019-03-26T22:42:56.041Z,94.53
2019-03-26T22:45:22.304Z,95.41
2019-03-26T22:47:48.557Z,94.74
2019-03-26T22:50:56.131Z,95.17
2019-03-26T22:53:22.380Z,95.33
2019-03-26T22:55:48.642Z,94.88
2019-03-26T22:58:14.881Z,94.98
2019-03-26T23:03:15.167Z,94.45
2019-03-26T23:05:41.400Z,94.85
2019-03-26T23:08:07.652Z,94.55
2019-03-26T23:10:33.885Z,93.35
2019-03-26T23:13:00.203Z,94.33
2019-03-26T23:18:16.546Z,94.47
2019-03-26T23:20:42.772Z,93.91
2019-03-26T23:23:09.023Z,93.56
2019-03-26T23:25:35.257Z,93.61
2019-03-26T23:28:01.495Z,94.83
2019-03-26T23:30:27.725Z,94.30
2019-03-26T23:32:53.972Z,94.35
2019-03-26T23:35:20.204Z,94.41
2019-03-26T23:37:46.454Z,93.92
2019-03-26T23:40:53.992Z,93.56
2019-03-26T23:43:20.243Z,93.14
2019-03-26T23:45:46.497Z,93.22
2019-03-26T23:48:12.747Z,93.20
2019-03-26T23:50:38.980Z,92.75
2019-03-26T23:53:05.246Z,92.82
2019-03-26T23:55:31.463Z,92.99
2019-03-26T23:57:57.813Z,93.86
